KACT/ACT METAR and TAF weather

Enter ICAO airport designator
Station Type Date Time Source
KACT METAR 2019/04/18 09:51 UTC NOAA

KACT 180951Z AUTO 11013KT 10SM SCT100 16/15 A2963 RMK AO2 RAE45 SLP025 P0011 T01610150 $


Station Type Date Time Source
KACT Decoded METAR 2019/04/18 09:51 UTC NOAA

WACO REGIONAL AIRPORT, TX, United States (KACT) 31-36N 97-13W 151M
Apr 18, 2019 - 05:51 AM EDT / 2019.04.18 0951 UTC
Wind: from the ESE (110 degrees) at 15 MPH (13 KT):0
Visibility: 10 mile(s):0
Sky conditions: partly cloudy
Precipitation last hour: 0.11 inches
Temperature: 61.0 F (16.1 C)
Dew Point: 59.0 F (15.0 C)
Relative Humidity: 93%
Pressure (altimeter): 29.63 in. Hg (1003 hPa)
ob: KACT 180951Z AUTO 11013KT 10SM SCT100 16/15 A2963 RMK AO2 RAE45 SLP025 P0011 T01610150
cycle: 10

Station Type Date Time Source
KACT TAF 2019/04/18 09:15 UTC NOAA

TAF
AMD KACT 180912Z 1809/1906 30012KT 4SM RA VCTS SCT050CB BKN150
FM181000 20008KT P6SM SCT090 BKN150
FM181800 34018G28KT P6SM VCSH BKN025 BKN150
FM182000 34020G30KT P6SM BKN050
FM190100 33006KT P6SM FEW200

Example: see airport list